Time;durP1;ratioP1;P1;durP2;ratioP2;P2;SDS_P1;SDS_P2;PMS_P1;PMS_P2;Temp;Humidity;BMP_temperature;BMP_pressure;BME280_temperature;BME280_humidity;BME280_pressure;Samples;Min_cycle;Max_cycle;Signal;HPM_P1;HPM_P2
2022/11/06 00:02:24;;;;;;;15.25;6.68;;;10.10;99.90;;;;;;5036497;28;20033;-64
2022/11/06 00:04:50;;;;;;;12.25;6.80;;;10.00;99.90;;;;;;5035137;28;20045;-64
2022/11/06 00:07:15;;;;;;;11.43;6.38;;;10.00;99.90;;;;;;5054426;28;20037;-64
2022/11/06 00:09:41;;;;;;;14.70;7.65;;;10.00;99.90;;;;;;5019468;28;20047;-64
2022/11/06 00:12:06;;;;;;;11.25;6.53;;;9.90;99.90;;;;;;5035187;28;20048;-64
2022/11/06 00:14:33;;;;;;;12.45;6.90;;;10.00;99.90;;;;;;5019666;28;20036;-64
2022/11/06 00:16:59;;;;;;;11.85;7.35;;;9.90;99.90;;;;;;5053929;28;20052;-64
2022/11/06 00:19:24;;;;;;;12.10;7.65;;;9.90;99.90;;;;;;5035262;28;20482;-64
2022/11/06 00:21:50;;;;;;;14.60;7.00;;;9.80;99.90;;;;;;5035654;28;20049;-64
2022/11/06 00:24:16;;;;;;;13.35;7.60;;;9.90;99.90;;;;;;5036200;28;20045;-64
2022/11/06 00:26:42;;;;;;;10.02;6.57;;;9.80;99.90;;;;;;5034916;28;20502;-64
2022/11/06 00:29:13;;;;;;;14.00;8.60;;;9.80;99.90;;;;;;5035966;28;20049;-64
2022/11/06 00:31:39;;;;;;;13.68;7.90;;;9.80;99.90;;;;;;5035783;28;20045;-64
2022/11/06 00:34:08;;;;;;;12.55;7.30;;;9.80;99.90;;;;;;5034904;28;20048;-64
2022/11/06 00:36:34;;;;;;;13.80;8.13;;;9.80;99.90;;;;;;5053721;28;20040;-64
2022/11/06 00:39:00;;;;;;;15.02;8.25;;;9.80;99.90;;;;;;5035605;28;20045;-64
2022/11/06 00:41:27;;;;;;;11.88;7.68;;;9.80;99.90;;;;;;5034909;28;20058;-64
2022/11/06 00:43:55;;;;;;;13.48;7.28;;;9.80;99.90;;;;;;5053114;28;20044;-64
2022/11/06 00:46:21;;;;;;;13.73;8.30;;;9.80;99.90;;;;;;5035742;28;20051;-64
2022/11/06 00:48:47;;;;;;;17.58;7.45;;;9.80;99.90;;;;;;5034095;28;20047;-64
2022/11/06 00:51:15;;;;;;;13.95;7.82;;;9.80;99.90;;;;;;5019241;28;20033;-64
2022/11/06 00:53:43;;;;;;;16.58;7.35;;;9.80;99.90;;;;;;5018670;28;20053;-64
2022/11/06 00:56:14;;;;;;;13.70;7.40;;;9.80;99.90;;;;;;5034460;28;20049;-64
2022/11/06 00:58:40;;;;;;;14.60;7.68;;;9.80;99.90;;;;;;5035600;28;20059;-64
2022/11/06 01:01:10;;;;;;;11.60;6.80;;;9.80;99.90;;;;;;5034620;28;20045;-64
2022/11/06 01:03:37;;;;;;;12.55;6.75;;;9.80;99.90;;;;;;5034913;28;20041;-64
2022/11/06 01:06:05;;;;;;;10.93;7.03;;;9.80;99.90;;;;;;5035223;28;20036;-64
2022/11/06 01:08:31;;;;;;;16.23;6.95;;;9.90;99.90;;;;;;5034445;28;20033;-64
2022/11/06 01:10:57;;;;;;;15.23;7.32;;;9.90;99.90;;;;;;5034628;28;20063;-64
2022/11/06 01:13:22;;;;;;;11.20;6.78;;;9.90;99.90;;;;;;5035167;28;20071;-64
2022/11/06 01:15:48;;;;;;;12.13;6.65;;;9.90;99.90;;;;;;5033760;28;20063;-65
2022/11/06 01:18:14;;;;;;;14.23;7.10;;;9.90;99.90;;;;;;5052475;28;20083;-65
2022/11/06 01:20:39;;;;;;;14.68;8.02;;;9.90;99.90;;;;;;5034870;28;20040;-64
2022/11/06 01:23:05;;;;;;;14.75;7.53;;;9.90;99.90;;;;;;5033955;28;20051;-64
2022/11/06 01:25:31;;;;;;;12.35;7.22;;;9.90;99.90;;;;;;5034806;28;20056;-64
2022/11/06 01:27:56;;;;;;;14.50;7.93;;;9.90;99.90;;;;;;5052353;28;20045;-64
2022/11/06 01:30:22;;;;;;;14.27;7.32;;;9.90;99.90;;;;;;5034235;28;20517;-64
2022/11/06 01:32:47;;;;;;;15.18;7.00;;;9.90;99.90;;;;;;5034128;28;20045;-65
2022/11/06 01:35:13;;;;;;;13.05;7.20;;;9.90;99.90;;;;;;5035091;28;20045;-64
2022/11/06 01:37:39;;;;;;;11.98;7.35;;;9.90;99.90;;;;;;5033574;28;20409;-64
2022/11/06 01:40:05;;;;;;;13.57;7.00;;;9.90;99.90;;;;;;5052370;28;20077;-64
2022/11/06 01:42:30;;;;;;;15.23;7.97;;;10.00;99.90;;;;;;5034743;28;20087;-64
2022/11/06 01:45:05;;;;;;;12.52;7.18;;;10.00;99.90;;;;;;5033265;28;20080;-64
2022/11/06 01:47:30;;;;;;;14.50;7.55;;;9.90;99.90;;;;;;5018496;28;20393;-65
2022/11/06 01:50:01;;;;;;;13.45;8.05;;;10.00;99.90;;;;;;5051817;28;20044;-64
2022/11/06 01:52:29;;;;;;;14.98;8.15;;;10.00;99.90;;;;;;5033616;28;20084;-65
2022/11/06 01:55:02;;;;;;;11.98;7.47;;;10.00;99.90;;;;;;5034201;28;20527;-64
2022/11/06 01:57:27;;;;;;;12.80;7.65;;;10.00;99.90;;;;;;5033760;28;20083;-64
2022/11/06 01:59:54;;;;;;;10.70;6.93;;;10.00;99.90;;;;;;5017564;28;20092;-64
2022/11/06 02:02:20;;;;;;;13.23;7.65;;;10.00;99.90;;;;;;5052363;28;20045;-64
2022/11/06 02:04:47;;;;;;;11.98;8.27;;;10.00;99.90;;;;;;5016537;28;20099;-64
2022/11/06 02:07:14;;;;;;;11.52;7.07;;;10.00;99.90;;;;;;5034390;28;20069;-64
2022/11/06 02:09:39;;;;;;;14.63;9.00;;;10.00;99.90;;;;;;5034096;28;20094;-64
2022/11/06 02:12:31;;;;;;;12.75;8.52;;;10.00;99.90;;;;;;5033226;28;20041;-64
2022/11/06 02:15:21;;;;;;;11.93;7.55;;;10.00;99.90;;;;;;5033597;28;20060;-64
2022/11/06 02:18:11;;;;;;;13.95;7.93;;;10.00;99.90;;;;;;5051631;28;20108;-64
2022/11/06 02:20:58;;;;;;;10.40;7.45;;;10.10;99.90;;;;;;5033171;28;20041;-64
2022/11/06 02:23:51;;;;;;;15.27;9.38;;;10.00;99.90;;;;;;5034503;28;20040;-65
2022/11/06 02:26:31;;;;;;;13.05;8.68;;;10.00;99.90;;;;;;5013774;28;20053;-64
2022/11/06 02:29:04;;;;;;;12.40;8.15;;;10.00;99.90;;;;;;5013783;28;20045;-64
2022/11/06 02:31:34;;;;;;;18.35;8.25;;;10.00;99.90;;;;;;5018421;28;20042;-64
2022/11/06 02:34:11;;;;;;;14.90;8.80;;;10.00;99.90;;;;;;5035055;28;20045;-64
2022/11/06 02:36:46;;;;;;;11.05;8.02;;;10.10;99.90;;;;;;5018240;28;20041;-64
2022/11/06 02:39:15;;;;;;;11.40;8.80;;;10.00;99.90;;;;;;5018404;28;20077;-65
2022/11/06 02:41:44;;;;;;;14.00;9.00;;;10.00;99.90;;;;;;5035128;28;20037;-64
2022/11/06 02:44:19;;;;;;;13.55;9.38;;;10.00;99.90;;;;;;5018143;28;20047;-64
2022/11/06 02:46:50;;;;;;;17.35;9.13;;;10.10;99.90;;;;;;5017104;28;20060;-64
2022/11/06 02:49:22;;;;;;;16.55;10.10;;;10.00;99.90;;;;;;5018026;28;20506;-64
2022/11/06 02:51:55;;;;;;;16.33;8.95;;;10.00;99.90;;;;;;5017545;28;20057;-64
2022/11/06 02:54:23;;;;;;;14.68;9.85;;;10.00;99.90;;;;;;5035178;28;20368;-64
2022/11/06 02:56:52;;;;;;;14.68;9.73;;;10.10;99.90;;;;;;5017443;28;20041;-65
2022/11/06 02:59:27;;;;;;;12.82;9.75;;;10.10;99.90;;;;;;5017710;28;20045;-65
2022/11/06 03:02:18;;;;;;;16.45;10.10;;;10.00;99.90;;;;;;5016614;28;20063;-64
2022/11/06 03:04:59;;;;;;;12.02;8.75;;;10.10;99.90;;;;;;5017648;28;20045;-64
2022/11/06 03:07:36;;;;;;;15.77;9.25;;;10.10;99.90;;;;;;5017773;28;20049;-64
2022/11/06 03:10:03;;;;;;;14.77;9.40;;;10.10;99.90;;;;;;5000599;28;20055;-64
2022/11/06 03:12:42;;;;;;;13.27;9.25;;;10.10;99.90;;;;;;5001239;28;20441;-64
2022/11/06 03:15:17;;;;;;;16.30;10.20;;;10.10;99.90;;;;;;5016711;28;20490;-64
2022/11/06 03:18:00;;;;;;;16.25;9.38;;;10.10;99.90;;;;;;5017372;28;20509;-65
2022/11/06 03:20:33;;;;;;;13.68;8.60;;;10.10;99.90;;;;;;5001168;28;20041;-64
2022/11/06 03:23:14;;;;;;;14.68;9.32;;;10.10;99.90;;;;;;5016470;28;20056;-65
2022/11/06 03:26:02;;;;;;;12.88;9.20;;;10.20;99.90;;;;;;5034252;28;20063;-65
2022/11/06 03:28:37;;;;;;;13.63;10.07;;;10.10;99.90;;;;;;5037222;28;20560;-64
2022/11/06 03:31:06;;;;;;;18.52;10.63;;;10.10;99.90;;;;;;5036182;28;20037;-65
2022/11/06 03:33:49;;;;;;;16.80;9.77;;;10.10;99.90;;;;;;5054893;28;20486;-64
2022/11/06 03:36:23;;;;;;;15.45;9.65;;;10.10;99.90;;;;;;5036307;28;20043;-64
2022/11/06 03:39:01;;;;;;;11.90;9.65;;;10.10;99.90;;;;;;5054420;28;20041;-64
2022/11/06 03:41:59;;;;;;;14.05;9.27;;;10.20;99.90;;;;;;5036309;28;20037;-64
2022/11/06 03:44:35;;;;;;;15.18;10.40;;;10.20;99.90;;;;;;5053824;28;20033;-64
2022/11/06 03:47:22;;;;;;;12.88;8.95;;;10.20;99.90;;;;;;5020134;28;20076;-64
2022/11/06 03:50:01;;;;;;;13.75;9.77;;;10.20;99.90;;;;;;5036327;28;20571;-64
2022/11/06 03:52:34;;;;;;;15.27;9.32;;;10.20;99.90;;;;;;5054659;28;20037;-64
2022/11/06 03:55:06;;;;;;;18.95;10.10;;;10.20;99.90;;;;;;5036469;28;20044;-65
2022/11/06 03:57:40;;;;;;;16.02;9.18;;;10.20;99.90;;;;;;5053635;28;20103;-64
2022/11/06 04:00:07;;;;;;;13.32;9.23;;;10.20;99.90;;;;;;5054228;28;20033;-64
2022/11/06 04:02:36;;;;;;;15.57;10.20;;;10.20;99.90;;;;;;5054052;28;20429;-64
2022/11/06 04:05:09;;;;;;;12.57;9.18;;;10.20;99.90;;;;;;5019269;28;20049;-64
2022/11/06 04:07:39;;;;;;;14.95;9.38;;;10.20;99.90;;;;;;5036386;28;20052;-64
2022/11/06 04:15:47;;;;;;;14.30;9.30;;;10.20;99.90;;;;;;5035869;28;20102;-64
2022/11/06 04:18:16;;;;;;;14.82;10.63;;;10.20;99.90;;;;;;5053516;28;20115;-64
2022/11/06 04:26:52;;;;;;;12.63;9.43;;;10.30;99.90;;;;;;5034796;28;20099;-64
2022/11/06 04:29:55;;;;;;;12.18;8.95;;;10.20;99.90;;;;;;5036323;28;20041;-65
2022/11/06 04:32:33;;;;;;;14.20;9.68;;;10.20;99.90;;;;;;5035088;28;20040;-64
2022/11/06 04:35:01;;;;;;;11.55;8.68;;;10.20;99.90;;;;;;5035681;28;20043;-64
2022/11/06 04:37:38;;;;;;;11.27;9.20;;;10.20;99.90;;;;;;5019387;28;20493;-64
2022/11/06 04:40:13;;;;;;;12.73;8.70;;;10.20;99.90;;;;;;5034738;28;20044;-65
2022/11/06 04:42:56;;;;;;;21.63;9.93;;;10.20;99.90;;;;;;5035594;28;20048;-64
2022/11/06 04:45:33;;;;;;;14.60;10.18;;;10.30;99.90;;;;;;5053683;28;20056;-64
2022/11/06 04:48:02;;;;;;;12.80;8.73;;;10.20;99.90;;;;;;5052529;28;20130;-65
2022/11/06 04:50:31;;;;;;;13.98;9.40;;;10.20;99.90;;;;;;5035576;28;20053;-65
2022/11/06 04:52:58;;;;;;;15.13;8.20;;;10.20;99.90;;;;;;5034333;28;20396;-65
2022/11/06 04:55:24;;;;;;;17.55;9.70;;;10.20;99.90;;;;;;5052898;28;20063;-64
2022/11/06 04:57:50;;;;;;;15.90;9.73;;;10.20;99.90;;;;;;5018547;28;20513;-64
2022/11/06 05:00:16;;;;;;;11.65;9.02;;;10.20;99.90;;;;;;5035086;28;20045;-64
2022/11/06 05:02:42;;;;;;;12.90;8.93;;;10.20;99.90;;;;;;5035173;28;20493;-64
2022/11/06 05:05:08;;;;;;;12.68;8.85;;;10.30;99.90;;;;;;5035339;28;20052;-65
2022/11/06 05:07:33;;;;;;;14.25;9.40;;;10.20;99.90;;;;;;5052179;28;20611;-64
2022/11/06 05:09:59;;;;;;;13.48;8.63;;;10.20;99.90;;;;;;5052934;28;20045;-65
2022/11/06 05:12:25;;;;;;;14.63;8.93;;;10.20;99.90;;;;;;5035501;28;20398;-64
2022/11/06 05:14:50;;;;;;;15.35;8.25;;;10.20;99.90;;;;;;5033836;28;20037;-65
2022/11/06 05:17:16;;;;;;;14.50;8.60;;;10.20;99.90;;;;;;5052933;28;20116;-65
2022/11/06 05:19:42;;;;;;;12.02;8.88;;;10.20;99.90;;;;;;5034770;28;20037;-64
2022/11/06 05:24:53;;;;;;;;;;;10.20;99.90;;;;;;5024049;28;20072;-65
2022/11/06 05:27:18;;;;;;;11.07;8.02;;;10.20;99.90;;;;;;5032907;28;20003;-65
2022/11/06 05:29:44;;;;;;;14.10;8.63;;;10.20;99.90;;;;;;5014022;28;20046;-65
2022/11/06 05:32:10;;;;;;;15.90;9.10;;;10.20;99.90;;;;;;5015390;28;20505;-65
2022/11/06 05:34:35;;;;;;;13.90;8.23;;;10.20;99.90;;;;;;5032765;28;20040;-65
2022/11/06 05:37:01;;;;;;;17.63;9.27;;;10.20;99.90;;;;;;5031863;28;20434;-65
2022/11/06 05:39:26;;;;;;;15.43;8.88;;;10.20;99.90;;;;;;5014938;28;20470;-64
2022/11/06 05:41:52;;;;;;;13.43;9.27;;;10.20;99.90;;;;;;5014491;28;20068;-65
2022/11/06 05:44:18;;;;;;;12.95;8.75;;;10.20;99.90;;;;;;5031784;28;20042;-65
2022/11/06 05:46:44;;;;;;;12.65;8.60;;;10.20;99.90;;;;;;5032246;28;20044;-65
2022/11/06 05:49:09;;;;;;;13.02;8.70;;;10.20;99.90;;;;;;5014777;28;20042;-64
2022/11/06 05:51:35;;;;;;;14.60;9.38;;;10.20;99.90;;;;;;5013913;28;20046;-64
2022/11/06 05:54:01;;;;;;;12.85;8.65;;;10.20;99.90;;;;;;5032208;28;20510;-65
2022/11/06 05:56:26;;;;;;;12.50;8.30;;;10.20;99.90;;;;;;5032673;28;20037;-64
2022/11/06 05:58:52;;;;;;;14.70;8.80;;;10.20;99.90;;;;;;5013606;28;20449;-64
2022/11/06 06:01:18;;;;;;;13.43;8.82;;;10.20;99.90;;;;;;5014651;28;20111;-65
2022/11/06 06:03:45;;;;;;;12.10;8.63;;;10.20;99.90;;;;;;5013500;28;20041;-64
2022/11/06 06:06:10;;;;;;;12.57;8.25;;;10.20;99.90;;;;;;5032258;28;20045;-64
2022/11/06 06:08:36;;;;;;;16.40;8.40;;;10.10;99.90;;;;;;5032133;28;20367;-64
2022/11/06 06:11:06;;;;;;;10.23;7.60;;;10.10;99.90;;;;;;5031235;28;20496;-65
2022/11/06 06:13:31;;;;;;;13.52;8.95;;;10.10;99.90;;;;;;5032164;28;20045;-65
2022/11/06 06:16:01;;;;;;;18.50;8.82;;;10.10;99.90;;;;;;5031600;28;20041;-65
2022/11/06 06:18:26;;;;;;;16.25;9.85;;;10.20;99.90;;;;;;4997675;28;20046;-65
2022/11/06 06:20:52;;;;;;;13.75;7.60;;;10.10;99.90;;;;;;4997780;28;20453;-65
2022/11/06 06:23:17;;;;;;;16.40;8.63;;;10.10;99.90;;;;;;5032495;28;20099;-64
2022/11/06 06:25:43;;;;;;;15.75;8.93;;;10.10;99.90;;;;;;5030815;28;20509;-65
2022/11/06 06:28:09;;;;;;;15.85;9.07;;;10.10;99.90;;;;;;5034067;28;20091;-64
2022/11/06 06:30:34;;;;;;;15.05;8.70;;;10.10;99.90;;;;;;5033873;28;20052;-65
2022/11/06 06:33:05;;;;;;;13.23;8.35;;;10.10;99.90;;;;;;5032949;28;20037;-65
2022/11/06 06:35:31;;;;;;;16.17;9.52;;;10.10;99.90;;;;;;5033983;28;20048;-65
2022/11/06 06:37:57;;;;;;;15.55;8.13;;;10.10;99.90;;;;;;5017525;28;20129;-65
2022/11/06 06:40:22;;;;;;;17.80;9.15;;;10.10;99.90;;;;;;5051266;28;20231;-65
2022/11/06 06:42:48;;;;;;;15.93;9.48;;;10.10;99.90;;;;;;5051282;28;20524;-64
2022/11/06 06:45:14;;;;;;;13.18;9.32;;;10.10;99.90;;;;;;5034134;28;20044;-64
2022/11/06 06:47:40;;;;;;;14.43;9.23;;;10.00;99.90;;;;;;5033015;28;20056;-64
2022/11/06 06:50:06;;;;;;;11.13;8.38;;;10.00;99.90;;;;;;5034028;28;20049;-64
2022/11/06 06:52:32;;;;;;;12.68;8.70;;;10.00;99.90;;;;;;5033960;28;20041;-64
2022/11/06 06:54:57;;;;;;;15.25;8.95;;;10.00;99.90;;;;;;5016566;28;20459;-64
2022/11/06 06:57:23;;;;;;;13.23;7.93;;;10.00;99.90;;;;;;5051696;28;20052;-64
2022/11/06 06:59:49;;;;;;;15.40;8.80;;;10.00;99.90;;;;;;5032709;28;20063;-64
2022/11/06 07:02:15;;;;;;;20.45;9.07;;;9.90;99.90;;;;;;5017721;28;20399;-64
2022/11/06 07:04:40;;;;;;;15.18;9.32;;;9.90;99.90;;;;;;5051427;28;20041;-64
2022/11/06 07:07:06;;;;;;;15.55;9.15;;;9.90;99.90;;;;;;5016504;28;20041;-64
2022/11/06 07:09:32;;;;;;;14.80;9.98;;;9.90;99.90;;;;;;5051656;28;20128;-64
2022/11/06 07:11:58;;;;;;;18.20;9.85;;;9.90;99.90;;;;;;5033196;28;20543;-64
2022/11/06 07:14:24;;;;;;;15.15;9.48;;;9.90;99.90;;;;;;5033221;28;20041;-64
2022/11/06 07:16:49;;;;;;;17.85;10.70;;;9.90;99.90;;;;;;5035915;28;20434;-64
2022/11/06 07:19:16;;;;;;;16.13;9.13;;;9.90;99.90;;;;;;5037467;28;20029;-65
2022/11/06 07:21:41;;;;;;;15.88;9.68;;;10.00;99.90;;;;;;5020052;28;20037;-64
2022/11/06 07:24:07;;;;;;;17.33;9.35;;;10.00;99.90;;;;;;5032639;28;20053;-63
2022/11/06 07:26:33;;;;;;;11.93;8.20;;;10.00;99.90;;;;;;5034818;28;20033;-64
2022/11/06 07:28:59;;;;;;;18.50;8.82;;;9.90;99.90;;;;;;5016612;28;20073;-64
2022/11/06 07:31:24;;;;;;;12.55;7.85;;;10.00;99.90;;;;;;5017424;28;20048;-64
2022/11/06 07:33:50;;;;;;;12.88;8.32;;;9.90;99.90;;;;;;5016575;28;20045;-64
2022/11/06 07:36:16;;;;;;;14.52;7.97;;;9.90;99.90;;;;;;5016553;28;20041;-64
2022/11/06 07:38:42;;;;;;;12.55;6.82;;;9.90;99.90;;;;;;5034750;28;20037;-64
2022/11/06 07:41:14;;;;;;;12.20;7.72;;;10.00;99.90;;;;;;5016845;28;20049;-64
2022/11/06 07:43:41;;;;;;;14.50;7.20;;;10.00;99.90;;;;;;5016249;28;20045;-64
2022/11/06 07:46:10;;;;;;;12.88;7.10;;;9.90;99.90;;;;;;5034673;28;20041;-64
2022/11/06 07:48:36;;;;;;;12.05;7.95;;;10.00;99.90;;;;;;5016976;28;20041;-64
2022/11/06 07:51:04;;;;;;;12.57;7.25;;;9.90;99.90;;;;;;4999738;28;20072;-64
2022/11/06 07:53:29;;;;;;;13.70;7.45;;;10.00;99.90;;;;;;5000675;28;20390;-64
2022/11/06 07:55:56;;;;;;;13.23;6.90;;;10.00;99.90;;;;;;5034042;28;20034;-64
2022/11/06 07:58:23;;;;;;;10.82;7.10;;;10.00;99.90;;;;;;5016274;28;20501;-64
2022/11/06 08:00:51;;;;;;;11.70;6.45;;;10.00;99.90;;;;;;5034150;28;20073;-64
2022/11/06 08:03:18;;;;;;;13.23;6.65;;;10.00;99.90;;;;;;5016149;28;20045;-64
2022/11/06 08:05:44;;;;;;;9.63;6.10;;;10.00;99.90;;;;;;5016417;28;20050;-64
2022/11/06 08:08:10;;;;;;;15.70;7.35;;;10.00;99.90;;;;;;5014824;28;20115;-64
2022/11/06 08:10:39;;;;;;;14.93;7.00;;;10.00;99.90;;;;;;5033243;28;20045;-64
2022/11/06 08:13:08;;;;;;;14.77;7.82;;;10.10;99.90;;;;;;5000074;28;20506;-64
2022/11/06 08:15:37;;;;;;;11.73;6.80;;;10.10;99.90;;;;;;5030219;28;20072;-64
2022/11/06 08:18:03;;;;;;;11.55;6.78;;;10.10;99.90;;;;;;5052974;28;20032;-64
2022/11/06 08:20:28;;;;;;;12.23;7.05;;;10.10;99.90;;;;;;5036381;28;20452;-64
2022/11/06 08:22:58;;;;;;;13.27;6.00;;;10.10;99.90;;;;;;5045283;28;20095;-64
2022/11/06 08:25:24;;;;;;;11.90;6.72;;;10.20;99.90;;;;;;5030458;28;20085;-64
2022/11/06 08:27:54;;;;;;;12.05;6.90;;;10.10;99.90;;;;;;5034255;28;20091;-64
2022/11/06 08:30:20;;;;;;;12.90;7.47;;;10.10;99.90;;;;;;5036217;28;20402;-64
2022/11/06 08:32:46;;;;;;;11.02;6.07;;;10.10;99.90;;;;;;5049029;28;20056;-64
2022/11/06 08:35:11;;;;;;;11.18;5.60;;;10.10;99.90;;;;;;5051202;28;20029;-64
2022/11/06 08:37:37;;;;;;;13.43;7.15;;;10.10;99.90;;;;;;5033824;28;20095;-64
2022/11/06 08:40:03;;;;;;;14.70;7.32;;;10.10;99.90;;;;;;5032777;28;20481;-64
2022/11/06 08:42:29;;;;;;;14.45;5.75;;;10.10;99.90;;;;;;5033552;28;20124;-64
2022/11/06 08:44:54;;;;;;;15.43;6.47;;;10.10;99.90;;;;;;5032139;28;20125;-64
2022/11/06 08:47:20;;;;;;;11.90;6.30;;;10.10;99.90;;;;;;5032717;28;20064;-64
2022/11/06 08:49:45;;;;;;;12.80;6.07;;;10.20;99.90;;;;;;5032753;28;20637;-63
2022/11/06 08:52:11;;;;;;;9.98;5.38;;;10.20;99.90;;;;;;5033278;28;20049;-63
2022/11/06 08:54:37;;;;;;;11.40;5.78;;;10.20;99.90;;;;;;5033115;28;20048;-64
2022/11/06 08:57:03;;;;;;;11.75;6.45;;;10.20;99.90;;;;;;5042044;28;20037;-63
2022/11/06 08:59:29;;;;;;;11.20;5.68;;;10.20;99.90;;;;;;5031802;28;20051;-64
2022/11/06 09:01:56;;;;;;;14.40;6.63;;;10.30;99.90;;;;;;5031835;28;20493;-63
2022/11/06 09:04:22;;;;;;;11.40;5.53;;;10.20;99.90;;;;;;5050142;28;20052;-63
2022/11/06 09:06:47;;;;;;;10.77;6.22;;;10.20;99.90;;;;;;5031484;28;20084;-63
2022/11/06 09:09:13;;;;;;;13.85;5.53;;;10.30;99.90;;;;;;5031839;28;20087;-64
2022/11/06 09:11:39;;;;;;;12.52;5.53;;;10.20;99.90;;;;;;5032190;28;20056;-63
2022/11/06 09:14:05;;;;;;;14.10;6.45;;;10.20;99.90;;;;;;5014745;28;20087;-64
2022/11/06 09:16:30;;;;;;;11.10;5.25;;;10.30;99.90;;;;;;5049017;28;20036;-63
2022/11/06 09:18:56;;;;;;;13.52;5.15;;;10.20;99.90;;;;;;5019566;28;20401;-64
2022/11/06 09:21:22;;;;;;;10.13;5.72;;;10.30;99.90;;;;;;5053886;28;20045;-63
2022/11/06 09:23:49;;;;;;;10.40;5.45;;;10.30;99.90;;;;;;5029433;28;20075;-64
2022/11/06 09:26:15;;;;;;;15.63;6.00;;;10.30;99.90;;;;;;5048414;28;20045;-63
2022/11/06 09:28:41;;;;;;;13.20;5.50;;;10.20;99.90;;;;;;5043499;28;20127;-64
2022/11/06 09:31:08;;;;;;;13.43;6.35;;;10.30;99.90;;;;;;5030511;28;20128;-64
2022/11/06 09:33:34;;;;;;;9.32;4.95;;;10.30;99.90;;;;;;5013885;28;20048;-63
2022/11/06 09:36:03;;;;;;;10.93;4.78;;;10.30;99.90;;;;;;5047954;28;20049;-63
2022/11/06 09:38:29;;;;;;;10.82;4.90;;;10.30;99.90;;;;;;5015131;28;20060;-63
2022/11/06 09:41:00;;;;;;;11.50;5.05;;;10.30;99.90;;;;;;5045160;28;20723;-64
2022/11/06 09:43:50;;;;;;;10.70;5.07;;;10.30;99.90;;;;;;5031054;28;20087;-64
2022/11/06 09:46:31;;;;;;;10.75;5.00;;;10.30;99.90;;;;;;5014267;28;20048;-63
2022/11/06 09:49:11;;;;;;;10.60;4.50;;;10.30;99.90;;;;;;5030774;28;20654;-63
2022/11/06 09:51:43;;;;;;;10.45;5.57;;;10.30;99.90;;;;;;5029963;28;20454;-63
2022/11/06 09:54:21;;;;;;;9.45;4.68;;;10.30;99.90;;;;;;5014295;28;20540;-63
2022/11/06 09:56:49;;;;;;;14.00;5.30;;;10.30;99.90;;;;;;5009474;28;20627;-62
2022/11/06 09:59:17;;;;;;;10.80;4.82;;;10.30;99.90;;;;;;5030008;28;20045;-63
2022/11/06 10:01:54;;;;;;;12.60;4.95;;;10.30;99.90;;;;;;5007589;28;20089;-62
2022/11/06 10:04:40;;;;;;;11.07;4.95;;;10.30;99.90;;;;;;5034508;28;20045;-63
2022/11/06 10:07:28;;;;;;;13.57;5.53;;;10.30;99.90;;;;;;5030646;28;20029;-63
2022/11/06 10:09:55;;;;;;;11.55;5.85;;;10.30;99.90;;;;;;5029297;28;20041;-63
2022/11/06 10:12:33;;;;;;;8.27;5.50;;;10.30;99.90;;;;;;5030946;28;20516;-63
2022/11/06 10:15:25;;;;;;;9.45;4.82;;;10.40;99.90;;;;;;5030036;28;20037;-62
2022/11/06 10:18:04;;;;;;;11.45;4.80;;;10.40;99.90;;;;;;5019752;28;20514;-62
2022/11/06 10:20:46;;;;;;;9.40;5.03;;;10.40;99.90;;;;;;5030246;28;20037;-62
2022/11/06 10:23:36;;;;;;;13.65;5.20;;;10.40;99.90;;;;;;5049281;28;20116;-63
2022/11/06 10:26:15;;;;;;;8.82;4.78;;;10.40;99.90;;;;;;4985296;28;20085;-62
2022/11/06 10:29:22;;;;;;;10.70;4.90;;;10.50;99.90;;;;;;5006354;28;20444;-63
2022/11/06 10:31:54;;;;;;;9.57;4.90;;;10.50;99.90;;;;;;4985088;28;20046;-63
2022/11/06 10:34:34;;;;;;;9.57;4.43;;;10.50;99.90;;;;;;5027984;28;20065;-63
2022/11/06 10:37:12;;;;;;;7.68;3.92;;;10.50;99.90;;;;;;5027393;28;21061;-62
2022/11/06 10:39:38;;;;;;;12.20;4.85;;;10.50;99.90;;;;;;5023588;28;20045;-63
2022/11/06 10:42:17;;;;;;;8.10;3.83;;;10.50;99.90;;;;;;5011239;28;20045;-63
2022/11/06 10:44:55;;;;;;;12.95;4.57;;;10.60;99.90;;;;;;5008144;28;20057;-64
2022/11/06 10:47:25;;;;;;;11.70;4.28;;;10.60;99.90;;;;;;5010890;28;20049;-64
2022/11/06 10:49:57;;;;;;;10.48;4.68;;;10.60;99.90;;;;;;5009785;28;20360;-64
2022/11/06 10:52:52;;;;;;;10.65;4.75;;;10.60;99.90;;;;;;5028397;28;20371;-64
2022/11/06 10:55:38;;;;;;;7.53;3.53;;;10.60;99.90;;;;;;4998891;28;20087;-65
2022/11/06 10:58:07;;;;;;;13.02;5.03;;;10.70;99.90;;;;;;5004717;28;20072;-65
2022/11/06 11:00:33;;;;;;;11.55;3.95;;;10.70;99.90;;;;;;5014761;28;20041;-64
2022/11/06 11:03:01;;;;;;;9.23;4.13;;;10.70;99.90;;;;;;5032667;28;20045;-65
2022/11/06 11:05:39;;;;;;;10.88;4.75;;;10.70;99.90;;;;;;5015198;28;20132;-64
2022/11/06 11:08:05;;;;;;;9.02;3.95;;;10.70;99.90;;;;;;5013795;28;20917;-64
2022/11/06 11:10:32;;;;;;;8.50;4.28;;;10.70;99.90;;;;;;5033113;28;20045;-64
2022/11/06 11:13:01;;;;;;;9.60;4.50;;;10.70;99.90;;;;;;5014884;28;20051;-64
2022/11/06 11:15:47;;;;;;;8.68;4.07;;;10.70;99.90;;;;;;5014135;28;20042;-64
2022/11/06 11:18:33;;;;;;;7.60;3.60;;;10.70;99.90;;;;;;4995725;28;20046;-64
2022/11/06 11:21:18;;;;;;;12.35;4.28;;;10.70;99.90;;;;;;5010220;28;20046;-64
2022/11/06 11:24:10;;;;;;;9.63;3.80;;;10.80;99.90;;;;;;4997028;28;20121;-64
2022/11/06 11:26:52;;;;;;;9.02;3.63;;;10.80;99.90;;;;;;5006271;28;20513;-64
2022/11/06 11:29:27;;;;;;;10.50;4.30;;;10.80;99.90;;;;;;5037391;28;20485;-64
2022/11/06 11:31:59;;;;;;;8.00;4.20;;;10.80;99.90;;;;;;5033748;28;20048;-64
2022/11/06 11:34:31;;;;;;;7.13;3.90;;;10.90;99.90;;;;;;5034246;28;20145;-64
2022/11/06 11:37:05;;;;;;;8.50;3.78;;;10.90;99.90;;;;;;5051779;28;20032;-64
2022/11/06 11:39:36;;;;;;;9.80;3.65;;;10.90;99.90;;;;;;5052296;28;20355;-64
2022/11/06 11:42:28;;;;;;;10.27;4.22;;;10.90;99.90;;;;;;5051853;28;20174;-64
2022/11/06 11:45:09;;;;;;;7.90;3.55;;;10.90;99.90;;;;;;5046846;28;20040;-64
2022/11/06 11:47:37;;;;;;;10.93;4.22;;;10.90;99.90;;;;;;5052270;28;20036;-65
2022/11/06 11:50:29;;;;;;;8.30;3.58;;;10.90;99.90;;;;;;5015590;28;20076;-65
2022/11/06 11:53:00;;;;;;;8.40;3.88;;;11.00;99.90;;;;;;5028639;28;20572;-65
2022/11/06 11:55:28;;;;;;;8.38;3.72;;;11.00;99.90;;;;;;5032881;28;20095;-64
2022/11/06 11:57:58;;;;;;;8.35;4.03;;;11.00;99.90;;;;;;4997572;28;20037;-65
2022/11/06 12:00:23;;;;;;;8.50;3.75;;;11.10;99.90;;;;;;5014738;28;20041;-64
2022/11/06 12:02:54;;;;;;;8.70;3.30;;;11.10;99.90;;;;;;5030915;28;20490;-64
2022/11/06 12:05:31;;;;;;;11.13;4.00;;;11.10;99.90;;;;;;5049067;28;20417;-64
2022/11/06 12:07:58;;;;;;;10.75;3.78;;;11.10;99.90;;;;;;5031977;28;20150;-65
2022/11/06 12:10:27;;;;;;;13.82;4.07;;;11.20;99.90;;;;;;5033122;28;20048;-65
2022/11/06 12:12:53;;;;;;;11.48;4.03;;;11.20;99.90;;;;;;5051188;28;20045;-66
2022/11/06 12:15:22;;;;;;;9.05;4.32;;;11.20;99.90;;;;;;5034097;28;20079;-65
2022/11/06 12:17:56;;;;;;;8.90;4.10;;;11.30;99.90;;;;;;5028741;28;20049;-65
2022/11/06 12:20:31;;;;;;;9.60;3.80;;;11.30;99.90;;;;;;5055601;28;20045;-65
2022/11/06 12:22:59;;;;;;;9.80;4.68;;;11.30;99.90;;;;;;5034042;28;20052;-65
2022/11/06 12:25:33;;;;;;;8.48;3.67;;;11.30;99.90;;;;;;5050096;28;20144;-66
2022/11/06 12:28:00;;;;;;;10.02;3.72;;;11.40;99.90;;;;;;5051015;28;20563;-66
2022/11/06 12:30:28;;;;;;;12.63;4.75;;;11.40;99.90;;;;;;5031764;28;20045;-66
2022/11/06 12:33:03;;;;;;;11.48;4.43;;;11.40;99.90;;;;;;4996680;28;20045;-66
2022/11/06 12:35:36;;;;;;;13.43;4.45;;;11.50;99.90;;;;;;5027300;28;20396;-66
2022/11/06 12:38:26;;;;;;;8.90;4.22;;;11.50;99.90;;;;;;5014113;28;20072;-66
2022/11/06 12:41:16;;;;;;;9.52;4.95;;;11.60;99.90;;;;;;5010419;28;20052;-68
2022/11/06 12:43:45;;;;;;;7.60;3.17;;;11.60;99.90;;;;;;5032799;28;20907;-64
2022/11/06 12:46:29;;;;;;;8.20;2.83;;;11.60;99.90;;;;;;5028745;28;20099;-64
2022/11/06 12:49:16;;;;;;;8.90;3.57;;;11.70;99.90;;;;;;5045333;28;20076;-64
2022/11/06 12:51:46;;;;;;;7.30;2.83;;;11.70;99.90;;;;;;5041636;28;20143;-64
2022/11/06 12:54:53;;;;;;;11.00;3.03;;;11.70;99.90;;;;;;5032562;28;20056;-65
2022/11/06 12:57:47;;;;;;;8.63;2.42;;;11.70;99.90;;;;;;4952415;28;20053;-65
2022/11/06 13:00:17;;;;;;;5.38;2.15;;;11.70;99.90;;;;;;4952507;28;20067;-65
2022/11/06 13:03:21;;;;;;;6.07;2.30;;;11.70;99.90;;;;;;4994192;28;20138;-64
2022/11/06 13:06:04;;;;;;;7.68;2.40;;;11.60;99.90;;;;;;5025462;28;20048;-64
2022/11/06 13:09:16;;;;;;;5.15;2.28;;;11.60;99.90;;;;;;5032451;28;20040;-64
2022/11/06 13:11:53;;;;;;;9.80;3.13;;;11.60;99.90;;;;;;4964967;28;20069;-65
2022/11/06 13:14:34;;;;;;;5.53;2.33;;;11.60;99.90;;;;;;5049188;28;20044;-64
2022/11/06 13:17:09;;;;;;;7.43;2.78;;;11.60;99.90;;;;;;5044646;28;20037;-64